createdAt,value
2019-04-03T15:03:06.861Z,3.33
2019-04-03T15:04:11.962Z,5.28
2019-04-03T15:05:19.652Z,5.10
2019-04-03T15:06:23.987Z,3.33
2019-04-03T15:07:29.719Z,4.35
2019-04-03T15:08:34.634Z,5.12
2019-04-03T15:09:41.117Z,3.30
2019-04-03T15:10:46.446Z,4.05
2019-04-03T15:11:51.404Z,3.85
2019-04-03T15:12:56.789Z,4.08
2019-04-03T15:14:02.389Z,4.87
2019-04-03T15:15:08.026Z,5.05
2019-04-03T15:16:13.580Z,5.35
2019-04-03T15:17:18.296Z,5.65
2019-04-03T15:18:24.227Z,3.45
2019-04-03T15:19:31.025Z,5.22
2019-04-03T15:20:35.932Z,5.05
2019-04-03T15:21:41.506Z,4.03
2019-04-03T15:22:46.515Z,2.98
2019-04-03T15:23:52.084Z,3.70
2019-04-03T15:24:57.333Z,3.15
2019-04-03T15:26:02.208Z,4.40
2019-04-03T15:27:09.932Z,3.27
2019-04-03T15:28:15.492Z,3.77
2019-04-03T15:29:20.376Z,3.10
2019-04-03T15:30:25.947Z,4.62
2019-04-03T15:31:31.125Z,2.87
2019-04-03T15:32:36.415Z,3.33
2019-04-03T15:33:41.264Z,2.60
2019-04-03T15:34:46.279Z,2.90
2019-04-03T15:35:50.992Z,3.33
2019-04-03T15:36:55.507Z,2.95
2019-04-03T15:38:00.429Z,2.55
2019-04-03T15:39:11.621Z,2.98
2019-04-03T15:40:16.289Z,2.62
2019-04-03T15:41:21.838Z,2.87
2019-04-03T15:42:26.506Z,3.00
2019-04-03T15:43:31.506Z,3.08
2019-04-03T15:44:36.350Z,3.27
2019-04-03T15:45:46.944Z,4.33
2019-04-03T15:46:51.782Z,2.92
2019-04-03T15:47:58.254Z,2.47
2019-04-03T15:49:03.509Z,3.58
2019-04-03T15:50:10.132Z,2.20
2019-04-03T15:51:15.165Z,2.05
2019-04-03T15:52:20.259Z,3.70
2019-04-03T15:53:25.868Z,4.00
2019-04-03T15:54:32.510Z,2.87
2019-04-03T15:55:39.345Z,2.80
2019-04-03T15:56:45.798Z,2.72
2019-04-03T15:57:52.601Z,2.45
2019-04-03T15:58:59.282Z,2.75
2019-04-03T16:00:04.486Z,4.03
2019-04-03T16:01:09.307Z,2.40
2019-04-03T16:02:13.966Z,2.87
2019-04-03T16:03:19.644Z,2.40
2019-04-03T16:04:24.914Z,2.90
2019-04-03T16:05:33.898Z,2.92
2019-04-03T16:06:38.334Z,2.67
2019-04-03T16:07:43.266Z,2.67
2019-04-03T16:08:48.532Z,2.72
2019-04-03T16:09:53.570Z,2.22
2019-04-03T16:10:58.940Z,3.20
2019-04-03T16:12:06.128Z,3.83
2019-04-03T16:13:12.082Z,3.80
2019-04-03T16:14:19.886Z,4.17
2019-04-03T16:15:24.639Z,3.35
2019-04-03T16:16:45.892Z,2.60
2019-04-03T16:17:50.821Z,4.75
2019-04-03T16:18:55.930Z,3.08
2019-04-03T16:20:00.834Z,4.45
2019-04-03T16:21:05.276Z,3.87
2019-04-03T16:22:11.541Z,3.05
2019-04-03T16:23:17.279Z,3.85
2019-04-03T16:24:22.513Z,2.85
2019-04-03T16:25:27.171Z,3.72
2019-04-03T16:26:31.840Z,2.90
2019-04-03T16:27:36.396Z,2.85
2019-04-03T16:28:40.864Z,4.33
2019-04-03T16:29:45.903Z,3.37
2019-04-03T16:30:52.743Z,5.20
2019-04-03T16:31:57.652Z,3.02
2019-04-03T16:33:04.795Z,2.80
2019-04-03T16:34:12.252Z,7.55
2019-04-03T16:35:15.382Z,2.98
2019-04-03T16:36:20.850Z,2.58
2019-04-03T16:37:26.457Z,3.12
2019-04-03T16:38:45.948Z,2.92
2019-04-03T16:39:50.748Z,3.05
2019-04-03T16:40:55.944Z,5.03
2019-04-03T16:42:01.221Z,4.97
2019-04-03T16:43:05.825Z,3.25
2019-04-03T16:44:10.838Z,4.10
2019-04-03T16:45:16.179Z,3.08
2019-04-03T16:46:21.121Z,3.05
2019-04-03T16:47:27.627Z,3.00
2019-04-03T16:48:32.523Z,2.45
2019-04-03T16:49:38.007Z,3.37
2019-04-03T16:50:42.819Z,2.62
2019-04-03T16:51:49.345Z,2.58
2019-04-03T16:52:54.562Z,2.80
2019-04-03T16:54:00.745Z,3.00
2019-04-03T16:55:05.487Z,3.05
2019-04-03T16:56:10.684Z,4.30
2019-04-03T16:57:15.915Z,2.90
2019-04-03T16:58:21.071Z,2.37
2019-04-03T16:59:26.035Z,3.02
2019-04-03T17:00:30.763Z,2.37
2019-04-03T17:01:35.417Z,1.80
2019-04-03T17:02:40.749Z,3.22
2019-04-03T17:03:45.784Z,2.20
2019-04-03T17:04:50.516Z,3.92
2019-04-03T17:05:55.746Z,2.20
2019-04-03T17:07:00.945Z,2.00
2019-04-03T17:08:06.487Z,2.52
2019-04-03T17:09:11.414Z,2.20
2019-04-03T17:10:16.083Z,2.58
2019-04-03T17:11:21.598Z,3.12
2019-04-03T17:12:26.322Z,2.40
2019-04-03T17:13:31.736Z,3.05
2019-04-03T17:14:36.481Z,3.52
2019-04-03T17:15:42.052Z,3.02
2019-04-03T17:16:47.097Z,2.35
2019-04-03T17:17:52.435Z,2.40
2019-04-03T17:18:57.355Z,2.10
2019-04-03T17:20:04.594Z,3.30
2019-04-03T17:21:08.907Z,3.37
2019-04-03T17:22:14.224Z,2.37
2019-04-03T17:23:19.234Z,2.72
2019-04-03T17:24:24.637Z,3.02
2019-04-03T17:25:38.257Z,2.83
2019-04-03T17:26:47.965Z,5.05
2019-04-03T17:27:54.183Z,2.60
2019-04-03T17:29:01.725Z,3.65
2019-04-03T17:29:57.197Z,2.47
2019-04-03T17:31:02.228Z,3.02
2019-04-03T17:32:08.684Z,3.47
2019-04-03T17:33:13.267Z,4.10
2019-04-03T17:34:18.447Z,3.20
2019-04-03T17:35:22.868Z,3.42
2019-04-03T17:36:28.094Z,2.70
2019-04-03T17:37:33.502Z,2.60
2019-04-03T17:38:38.712Z,3.77
2019-04-03T17:39:45.146Z,3.65
2019-04-03T17:40:49.831Z,4.22
2019-04-03T17:41:54.738Z,3.60
2019-04-03T17:42:59.574Z,3.05
2019-04-03T17:44:04.619Z,4.08
2019-04-03T17:45:09.902Z,4.28
2019-04-03T17:46:15.824Z,3.08
2019-04-03T17:47:21.521Z,3.10
2019-04-03T17:48:26.759Z,2.80
2019-04-03T17:49:31.706Z,4.72
2019-04-03T17:50:37.042Z,3.50
2019-04-03T17:51:42.239Z,3.30
2019-04-03T17:52:47.859Z,2.92
2019-04-03T17:53:52.883Z,3.55
2019-04-03T17:54:58.101Z,3.22
2019-04-03T17:56:02.869Z,3.30
2019-04-03T17:57:08.147Z,4.47
2019-04-03T17:58:16.407Z,4.55
2019-04-03T17:59:20.281Z,4.22
2019-04-03T18:00:25.919Z,3.33
2019-04-03T18:01:30.964Z,5.50
2019-04-03T18:02:35.942Z,3.25
2019-04-03T18:03:40.413Z,3.47
2019-04-03T18:04:45.807Z,3.33
2019-04-03T18:05:50.498Z,3.25
2019-04-03T18:06:57.256Z,6.22
2019-04-03T18:08:02.177Z,9.10
2019-04-03T18:09:09.467Z,5.58
2019-04-03T18:10:14.623Z,6.47
2019-04-03T18:11:19.636Z,3.80
2019-04-03T18:12:24.573Z,4.15
2019-04-03T18:13:29.784Z,3.55
2019-04-03T18:14:35.010Z,3.90
2019-04-03T18:15:39.728Z,4.15
2019-04-03T18:16:44.395Z,4.20
2019-04-03T18:17:49.466Z,4.17
2019-04-03T18:18:54.328Z,3.37
2019-04-03T18:19:58.729Z,5.00
2019-04-03T18:21:03.946Z,3.60
2019-04-03T18:22:08.864Z,3.67
2019-04-03T18:23:14.472Z,4.67
2019-04-03T18:24:19.299Z,4.65
2019-04-03T18:25:24.203Z,3.70
2019-04-03T18:26:30.636Z,5.00
2019-04-03T18:27:36.099Z,5.40
2019-04-03T18:28:40.603Z,4.78
2019-04-03T18:29:45.791Z,3.92
2019-04-03T18:30:50.745Z,5.05
2019-04-03T18:31:55.951Z,4.60
2019-04-03T18:33:01.150Z,5.22
2019-04-03T18:34:06.376Z,4.75
2019-04-03T18:35:11.242Z,4.80
2019-04-03T18:36:15.634Z,4.03
2019-04-03T18:37:20.242Z,4.87
2019-04-03T18:38:25.134Z,4.30
2019-04-03T18:39:30.337Z,5.40
2019-04-03T18:40:35.297Z,4.40
2019-04-03T18:41:40.483Z,4.70
2019-04-03T18:42:45.445Z,5.08
2019-04-03T18:43:50.618Z,5.47
2019-04-03T18:44:58.267Z,4.42
2019-04-03T18:46:03.217Z,8.23
2019-04-03T18:47:07.626Z,4.28
2019-04-03T18:48:12.282Z,4.90
2019-04-03T18:49:17.227Z,5.53
2019-04-03T18:50:21.941Z,5.40
2019-04-03T18:51:26.802Z,7.30
2019-04-03T18:52:31.748Z,6.05
2019-04-03T18:53:36.598Z,5.53
2019-04-03T18:54:42.496Z,6.12
2019-04-03T18:55:47.932Z,5.45
2019-04-03T18:56:52.637Z,6.10
2019-04-03T18:57:57.259Z,4.65
2019-04-03T18:59:01.906Z,4.42
2019-04-03T19:00:07.030Z,5.58
2019-04-03T19:01:11.431Z,5.95
2019-04-03T19:02:16.662Z,5.85
2019-04-03T19:03:21.855Z,6.17
2019-04-03T19:04:26.501Z,5.30
2019-04-03T19:05:31.757Z,5.45
2019-04-03T19:06:36.798Z,5.92
2019-04-03T19:07:41.480Z,7.87
2019-04-03T19:08:49.808Z,5.53
2019-04-03T19:10:06.034Z,4.87
2019-04-03T19:11:02.743Z,6.30
2019-04-03T19:12:08.718Z,5.53
2019-04-03T19:13:14.658Z,5.22
2019-04-03T19:14:27.122Z,6.83
2019-04-03T19:15:26.158Z,5.72
2019-04-03T19:16:43.655Z,5.33
2019-04-03T19:17:37.833Z,5.97
2019-04-03T19:18:43.068Z,5.67
2019-04-03T19:19:47.998Z,6.33
2019-04-03T19:20:52.689Z,7.30
2019-04-03T19:21:57.717Z,7.12
2019-04-03T19:23:04.951Z,5.12
2019-04-03T19:24:09.353Z,7.40
2019-04-03T19:25:14.549Z,5.62
2019-04-03T19:26:19.404Z,5.55
2019-04-03T19:27:24.343Z,5.22
2019-04-03T19:28:29.033Z,5.30
2019-04-03T19:29:35.493Z,4.55
2019-04-03T19:30:40.315Z,5.45
2019-04-03T19:31:45.496Z,4.33
2019-04-03T19:32:50.096Z,4.33
2019-04-03T19:33:55.117Z,4.83
2019-04-03T19:34:59.935Z,4.80
2019-04-03T19:36:04.931Z,4.78
2019-04-03T19:37:09.524Z,4.95
2019-04-03T19:38:14.488Z,4.45
2019-04-03T19:39:19.562Z,4.90
2019-04-03T19:40:24.221Z,4.62
2019-04-03T19:41:29.265Z,8.38
2019-04-03T19:42:33.975Z,5.15
2019-04-03T19:43:38.493Z,4.55
2019-04-03T19:44:43.133Z,4.40
2019-04-03T19:45:47.852Z,6.28
2019-04-03T19:46:53.920Z,4.65
2019-04-03T19:47:58.810Z,4.90
2019-04-03T19:49:03.759Z,4.47
2019-04-03T19:50:09.464Z,5.28
2019-04-03T19:51:14.783Z,4.70
2019-04-03T19:52:19.806Z,3.80
2019-04-03T19:53:25.024Z,5.17
2019-04-03T19:54:30.254Z,4.78
2019-04-03T19:55:35.403Z,4.35
2019-04-03T19:56:40.262Z,5.70
2019-04-03T19:57:45.312Z,4.25
2019-04-03T19:58:50.819Z,4.83
2019-04-03T19:59:55.543Z,5.58
2019-04-03T20:01:03.454Z,4.15
2019-04-03T20:02:09.629Z,7.37
2019-04-03T20:03:14.776Z,3.67
2019-04-03T20:04:20.057Z,5.05
2019-04-03T20:05:24.700Z,4.25
2019-04-03T20:06:29.655Z,4.78
2019-04-03T20:07:34.303Z,5.47
2019-04-03T20:08:39.247Z,5.33
2019-04-03T20:09:44.392Z,5.62
2019-04-03T20:10:49.325Z,5.33
2019-04-03T20:11:54.221Z,7.10
2019-04-03T20:12:58.843Z,4.80
2019-04-03T20:14:03.413Z,4.92
2019-04-03T20:15:10.050Z,6.12
2019-04-03T20:16:14.703Z,5.60
2019-04-03T20:17:19.351Z,6.70
2019-04-03T20:18:25.982Z,5.53
2019-04-03T20:19:31.232Z,7.50
2019-04-03T20:20:36.708Z,6.80
2019-04-03T20:21:41.636Z,7.28
2019-04-03T20:22:46.242Z,7.95
2019-04-03T20:23:50.607Z,7.08
2019-04-03T20:25:00.271Z,6.47
2019-04-03T20:26:04.530Z,8.88
2019-04-03T20:27:08.448Z,8.50
2019-04-03T20:28:13.393Z,12.10
2019-04-03T20:29:18.711Z,9.78
2019-04-03T20:30:23.372Z,8.73
2019-04-03T20:31:28.036Z,8.70
2019-04-03T20:32:33.015Z,11.00
2019-04-03T20:33:38.503Z,11.08
2019-04-03T20:34:45.105Z,9.40
2019-04-03T20:35:50.343Z,9.70
2019-04-03T20:36:55.097Z,10.88
2019-04-03T20:38:00.016Z,11.00
2019-04-03T20:39:06.719Z,13.00
2019-04-03T20:40:11.234Z,13.65
2019-04-03T20:41:15.870Z,10.32
2019-04-03T20:42:21.032Z,9.35
2019-04-03T20:43:25.861Z,10.63
2019-04-03T20:44:31.288Z,11.65
2019-04-03T20:45:36.518Z,10.00
2019-04-03T20:46:41.731Z,10.13
2019-04-03T20:47:46.593Z,11.48
2019-04-03T20:48:51.799Z,11.43
2019-04-03T20:49:56.466Z,10.65
2019-04-03T20:51:01.122Z,12.55
2019-04-03T20:52:05.927Z,11.73
2019-04-03T20:53:10.506Z,11.83
2019-04-03T20:54:15.470Z,12.28
2019-04-03T20:55:20.161Z,12.55
2019-04-03T20:56:28.753Z,11.22
2019-04-03T20:57:33.309Z,13.85
2019-04-03T20:58:40.685Z,10.82
2019-04-03T20:59:58.530Z,11.30
2019-04-03T21:01:05.798Z,13.25
2019-04-03T21:01:59.080Z,13.00
2019-04-03T21:03:04.036Z,12.53
2019-04-03T21:04:09.001Z,13.35
2019-04-03T21:05:13.766Z,12.73
2019-04-03T21:06:20.350Z,13.55
2019-04-03T21:07:24.687Z,13.75
2019-04-03T21:08:31.537Z,13.13
2019-04-03T21:09:36.071Z,16.45
2019-04-03T21:10:41.317Z,15.18
2019-04-03T21:11:46.400Z,13.35
2019-04-03T21:12:50.893Z,12.90
2019-04-03T21:13:55.323Z,15.95
2019-04-03T21:15:08.269Z,13.13
2019-04-03T21:16:06.904Z,14.25
2019-04-03T21:17:12.456Z,14.15
2019-04-03T21:18:18.906Z,13.58
2019-04-03T21:19:24.249Z,15.50
2019-04-03T21:20:29.193Z,13.18
2019-04-03T21:21:33.969Z,13.13
2019-04-03T21:22:39.211Z,14.70
2019-04-03T21:23:44.454Z,14.87
2019-04-03T21:24:49.443Z,14.15
2019-04-03T21:25:54.675Z,18.05
2019-04-03T21:26:59.907Z,12.65
2019-04-03T21:28:04.898Z,14.85
2019-04-03T21:29:10.141Z,15.60
2019-04-03T21:30:15.571Z,15.05
2019-04-03T21:31:20.504Z,14.43
2019-04-03T21:32:26.936Z,12.47
2019-04-03T21:33:32.112Z,12.98
2019-04-03T21:34:37.598Z,12.90
2019-04-03T21:35:42.838Z,12.82
2019-04-03T21:36:47.851Z,12.47
2019-04-03T21:37:52.555Z,13.55
2019-04-03T21:38:57.786Z,13.38
2019-04-03T21:40:04.882Z,13.38
2019-04-03T21:41:09.738Z,13.90
2019-04-03T21:42:14.705Z,14.40
2019-04-03T21:43:19.693Z,11.30
2019-04-03T21:44:25.000Z,14.68
2019-04-03T21:45:30.214Z,13.28
2019-04-03T21:46:35.172Z,13.35
2019-04-03T21:47:40.882Z,12.98
2019-04-03T21:48:46.566Z,12.55
2019-04-03T21:49:51.510Z,12.63
2019-04-03T21:50:56.098Z,15.23
2019-04-03T21:52:01.220Z,12.60
2019-04-03T21:53:06.178Z,12.60
2019-04-03T21:54:10.610Z,13.22
2019-04-03T21:55:15.556Z,12.20
2019-04-03T21:56:20.796Z,12.80
2019-04-03T21:57:25.488Z,14.65
2019-04-03T21:58:30.934Z,14.80
2019-04-03T21:59:35.533Z,12.82
2019-04-03T22:01:19.637Z,13.85
2019-04-03T22:02:24.920Z,14.05
2019-04-03T22:03:30.156Z,14.38
2019-04-03T22:04:34.866Z,13.72
2019-04-03T22:05:39.842Z,12.98
2019-04-03T22:06:44.556Z,14.93
2019-04-03T22:07:49.773Z,13.58
2019-04-03T22:08:54.514Z,16.32
2019-04-03T22:09:59.964Z,16.45
2019-04-03T22:11:06.254Z,13.80
2019-04-03T22:12:11.870Z,16.00
2019-04-03T22:13:16.812Z,14.73
2019-04-03T22:14:21.795Z,15.35
2019-04-03T22:15:27.118Z,14.65
2019-04-03T22:16:32.053Z,13.98
2019-04-03T22:17:37.026Z,15.05
2019-04-03T22:18:41.724Z,14.60
2019-04-03T22:19:47.078Z,13.80
2019-04-03T22:20:51.513Z,16.10
2019-04-03T22:21:56.456Z,13.75
2019-04-03T22:23:02.915Z,14.85
2019-04-03T22:24:07.611Z,15.63
2019-04-03T22:25:12.837Z,16.35
2019-04-03T22:26:18.059Z,16.85
2019-04-03T22:27:23.007Z,13.95
2019-04-03T22:28:27.468Z,14.80
2019-04-03T22:29:32.418Z,16.27
2019-04-03T22:30:37.130Z,15.93
2019-04-03T22:31:43.373Z,14.38
2019-04-03T22:32:48.034Z,15.23
2019-04-03T22:33:52.458Z,14.53
2019-04-03T22:34:56.885Z,15.65
2019-04-03T22:36:03.315Z,15.25
2019-04-03T22:37:08.565Z,14.98
2019-04-03T22:38:13.504Z,13.70
2019-04-03T22:39:18.088Z,16.27
2019-04-03T22:40:23.025Z,15.18
2019-04-03T22:41:27.988Z,15.05
2019-04-03T22:42:33.137Z,15.88
2019-04-03T22:43:38.102Z,13.53
2019-04-03T22:44:43.100Z,15.13
2019-04-03T22:45:50.449Z,15.88
2019-04-03T22:46:54.715Z,17.32
2019-04-03T22:47:59.486Z,14.73
2019-04-03T22:49:04.193Z,14.70
2019-04-03T22:50:08.615Z,14.53
2019-04-03T22:51:14.140Z,14.40
2019-04-03T22:52:19.745Z,14.28
2019-04-03T22:53:24.445Z,14.58
2019-04-03T22:54:29.115Z,13.58
2019-04-03T22:55:34.616Z,13.30
2019-04-03T22:56:39.868Z,12.75
2019-04-03T22:57:45.579Z,13.43
2019-04-03T22:58:52.564Z,14.40
2019-04-03T22:59:57.391Z,16.42
2019-04-03T23:01:02.612Z,15.53
2019-04-03T23:02:07.294Z,13.18
2019-04-03T23:03:13.439Z,15.65
2019-04-03T23:04:18.446Z,14.15
2019-04-03T23:05:23.444Z,13.68
2019-04-03T23:06:28.301Z,14.28
2019-04-03T23:07:33.433Z,13.22
2019-04-03T23:08:38.298Z,14.10
2019-04-03T23:09:43.497Z,13.38
2019-04-03T23:10:48.537Z,12.53
2019-04-03T23:11:53.784Z,14.93
2019-04-03T23:12:59.069Z,13.22
2019-04-03T23:14:06.965Z,12.18
2019-04-03T23:15:11.316Z,13.25
2019-04-03T23:16:16.296Z,12.58
2019-04-03T23:17:21.509Z,13.90
2019-04-03T23:18:26.423Z,13.00
2019-04-03T23:19:32.469Z,12.37
2019-04-03T23:20:38.331Z,13.85
2019-04-03T23:21:43.618Z,13.78
2019-04-03T23:22:48.411Z,13.95
2019-04-03T23:23:53.335Z,12.13
2019-04-03T23:24:59.474Z,14.60
2019-04-03T23:26:05.132Z,14.10
2019-04-03T23:27:10.103Z,12.07
2019-04-03T23:28:14.752Z,12.35
2019-04-03T23:29:19.923Z,14.65
2019-04-03T23:30:24.574Z,14.15
2019-04-03T23:31:28.998Z,13.43
2019-04-03T23:32:33.680Z,16.37
2019-04-03T23:33:38.820Z,13.18
2019-04-03T23:34:43.738Z,13.50
2019-04-03T23:35:49.108Z,12.63
2019-04-03T23:36:56.211Z,14.90
2019-04-03T23:38:01.443Z,13.70
2019-04-03T23:39:09.008Z,12.63
2019-04-03T23:40:14.443Z,12.88
2019-04-03T23:41:19.485Z,12.55
2019-04-03T23:42:24.637Z,13.80
2019-04-03T23:43:29.396Z,13.93
2019-04-03T23:44:34.547Z,12.90
2019-04-03T23:45:39.220Z,13.58
2019-04-03T23:46:45.620Z,13.08
2019-04-03T23:47:51.521Z,15.63
2019-04-03T23:48:56.288Z,14.18
2019-04-03T23:50:01.770Z,14.35
2019-04-03T23:51:06.708Z,13.60
2019-04-03T23:52:11.629Z,14.33
2019-04-03T23:53:16.503Z,14.33
2019-04-03T23:54:21.620Z,13.28
2019-04-03T23:55:26.585Z,12.13
2019-04-03T23:56:31.835Z,14.87
2019-04-03T23:57:39.705Z,13.00
2019-04-03T23:58:43.336Z,14.50
2019-04-03T23:59:48.864Z,16.17
